sensor_id;sensor_type;location;lat;lon;timestamp;temperature;humidity
4530;DHT22;2277;51.626;7.516;2022-07-23T00:00:10;20.30;99.90
4530;DHT22;2277;51.626;7.516;2022-07-23T00:02:36;20.30;99.90
4530;DHT22;2277;51.626;7.516;2022-07-23T00:05:02;20.30;99.90
4530;DHT22;2277;51.626;7.516;2022-07-23T00:07:28;20.10;99.90
4530;DHT22;2277;51.626;7.516;2022-07-23T00:09:53;20.20;99.90
4530;DHT22;2277;51.626;7.516;2022-07-23T00:12:19;20.20;99.90
4530;DHT22;2277;51.626;7.516;2022-07-23T00:14:45;20.20;99.90
4530;DHT22;2277;51.626;7.516;2022-07-23T00:17:11;20.10;99.90
4530;DHT22;2277;51.626;7.516;2022-07-23T00:19:36;20.10;99.90
4530;DHT22;2277;51.626;7.516;2022-07-23T00:22:02;20.00;99.90
4530;DHT22;2277;51.626;7.516;2022-07-23T00:24:27;19.90;99.90
4530;DHT22;2277;51.626;7.516;2022-07-23T00:26:53;19.90;99.90
4530;DHT22;2277;51.626;7.516;2022-07-23T00:29:19;19.90;99.90
4530;DHT22;2277;51.626;7.516;2022-07-23T00:31:44;19.90;99.90
4530;DHT22;2277;51.626;7.516;2022-07-23T00:34:10;19.80;99.90
4530;DHT22;2277;51.626;7.516;2022-07-23T00:36:35;19.80;99.90
4530;DHT22;2277;51.626;7.516;2022-07-23T00:39:01;19.80;99.90
4530;DHT22;2277;51.626;7.516;2022-07-23T00:41:27;19.80;99.90
4530;DHT22;2277;51.626;7.516;2022-07-23T00:43:53;19.70;99.90
4530;DHT22;2277;51.626;7.516;2022-07-23T00:46:22;19.60;99.90
4530;DHT22;2277;51.626;7.516;2022-07-23T00:48:48;19.70;99.90
4530;DHT22;2277;51.626;7.516;2022-07-23T00:51:15;19.70;99.90
4530;DHT22;2277;51.626;7.516;2022-07-23T00:53:42;19.70;99.90
4530;DHT22;2277;51.626;7.516;2022-07-23T00:56:08;19.60;99.90
4530;DHT22;2277;51.626;7.516;2022-07-23T00:58:35;19.60;99.90
4530;DHT22;2277;51.626;7.516;2022-07-23T01:01:00;19.60;99.90
4530;DHT22;2277;51.626;7.516;2022-07-23T01:03:26;19.60;99.90
4530;DHT22;2277;51.626;7.516;2022-07-23T01:05:52;19.60;99.90
4530;DHT22;2277;51.626;7.516;2022-07-23T01:08:18;19.60;99.90
4530;DHT22;2277;51.626;7.516;2022-07-23T01:10:44;19.60;99.90
4530;DHT22;2277;51.626;7.516;2022-07-23T01:13:10;19.50;99.90
4530;DHT22;2277;51.626;7.516;2022-07-23T01:15:37;19.60;99.90
4530;DHT22;2277;51.626;7.516;2022-07-23T01:18:04;19.50;99.90
4530;DHT22;2277;51.626;7.516;2022-07-23T01:20:31;19.40;99.90
4530;DHT22;2277;51.626;7.516;2022-07-23T01:22:56;19.30;99.90
4530;DHT22;2277;51.626;7.516;2022-07-23T01:25:22;19.20;99.90
4530;DHT22;2277;51.626;7.516;2022-07-23T01:27:49;19.30;99.90
4530;DHT22;2277;51.626;7.516;2022-07-23T01:30:16;19.30;99.90
4530;DHT22;2277;51.626;7.516;2022-07-23T01:32:41;19.30;99.90
4530;DHT22;2277;51.626;7.516;2022-07-23T01:35:08;19.30;99.90
4530;DHT22;2277;51.626;7.516;2022-07-23T01:37:34;19.30;99.90
4530;DHT22;2277;51.626;7.516;2022-07-23T01:40:00;19.30;99.90
4530;DHT22;2277;51.626;7.516;2022-07-23T01:42:25;19.30;99.90
4530;DHT22;2277;51.626;7.516;2022-07-23T01:44:51;19.30;99.90
4530;DHT22;2277;51.626;7.516;2022-07-23T01:47:17;19.30;99.90
4530;DHT22;2277;51.626;7.516;2022-07-23T01:49:42;19.40;99.90
4530;DHT22;2277;51.626;7.516;2022-07-23T01:52:08;19.30;99.90
4530;DHT22;2277;51.626;7.516;2022-07-23T01:54:37;19.30;99.90
4530;DHT22;2277;51.626;7.516;2022-07-23T01:57:04;19.20;99.90
4530;DHT22;2277;51.626;7.516;2022-07-23T01:59:30;19.20;99.90
4530;DHT22;2277;51.626;7.516;2022-07-23T02:01:56;19.20;99.90
4530;DHT22;2277;51.626;7.516;2022-07-23T02:04:23;19.30;99.90
4530;DHT22;2277;51.626;7.516;2022-07-23T02:06:49;19.30;99.90
4530;DHT22;2277;51.626;7.516;2022-07-23T02:09:15;19.30;99.90
4530;DHT22;2277;51.626;7.516;2022-07-23T02:11:41;19.20;99.90
4530;DHT22;2277;51.626;7.516;2022-07-23T02:14:07;19.20;99.90
4530;DHT22;2277;51.626;7.516;2022-07-23T02:16:32;19.20;99.90
4530;DHT22;2277;51.626;7.516;2022-07-23T02:18:58;19.10;99.90
4530;DHT22;2277;51.626;7.516;2022-07-23T02:21:23;19.10;99.90
4530;DHT22;2277;51.626;7.516;2022-07-23T02:23:49;19.10;99.90
4530;DHT22;2277;51.626;7.516;2022-07-23T02:26:15;19.10;99.90
4530;DHT22;2277;51.626;7.516;2022-07-23T02:28:40;19.10;99.90
4530;DHT22;2277;51.626;7.516;2022-07-23T02:31:06;19.10;99.90
4530;DHT22;2277;51.626;7.516;2022-07-23T02:33:33;19.20;99.90
4530;DHT22;2277;51.626;7.516;2022-07-23T02:35:59;19.20;99.90
4530;DHT22;2277;51.626;7.516;2022-07-23T02:38:25;19.10;99.90
4530;DHT22;2277;51.626;7.516;2022-07-23T02:40:51;19.10;99.90
4530;DHT22;2277;51.626;7.516;2022-07-23T02:43:17;19.10;99.90
4530;DHT22;2277;51.626;7.516;2022-07-23T02:45:42;19.10;99.90
4530;DHT22;2277;51.626;7.516;2022-07-23T02:48:08;19.10;99.90
4530;DHT22;2277;51.626;7.516;2022-07-23T02:50:34;19.00;99.90
4530;DHT22;2277;51.626;7.516;2022-07-23T02:53:00;19.00;99.90
4530;DHT22;2277;51.626;7.516;2022-07-23T02:55:25;19.00;99.90
4530;DHT22;2277;51.626;7.516;2022-07-23T02:57:51;19.00;99.90
4530;DHT22;2277;51.626;7.516;2022-07-23T03:00:17;19.00;99.90
4530;DHT22;2277;51.626;7.516;2022-07-23T03:02:42;19.00;99.90
4530;DHT22;2277;51.626;7.516;2022-07-23T03:05:09;19.00;99.90
4530;DHT22;2277;51.626;7.516;2022-07-23T03:07:35;18.90;99.90
4530;DHT22;2277;51.626;7.516;2022-07-23T03:10:01;18.90;99.90
4530;DHT22;2277;51.626;7.516;2022-07-23T03:12:27;18.90;99.90
4530;DHT22;2277;51.626;7.516;2022-07-23T03:14:52;18.90;99.90
4530;DHT22;2277;51.626;7.516;2022-07-23T03:17:18;18.80;99.90
4530;DHT22;2277;51.626;7.516;2022-07-23T03:19:43;18.80;99.90
4530;DHT22;2277;51.626;7.516;2022-07-23T03:22:09;18.70;99.90
4530;DHT22;2277;51.626;7.516;2022-07-23T03:24:35;18.70;99.90
4530;DHT22;2277;51.626;7.516;2022-07-23T03:27:19;18.60;99.90
4530;DHT22;2277;51.626;7.516;2022-07-23T03:29:45;18.60;99.90
4530;DHT22;2277;51.626;7.516;2022-07-23T03:32:11;18.60;99.90
4530;DHT22;2277;51.626;7.516;2022-07-23T03:34:38;18.60;99.90
4530;DHT22;2277;51.626;7.516;2022-07-23T03:37:03;18.50;99.90
4530;DHT22;2277;51.626;7.516;2022-07-23T03:39:29;18.50;99.90
4530;DHT22;2277;51.626;7.516;2022-07-23T03:41:55;18.50;99.90
4530;DHT22;2277;51.626;7.516;2022-07-23T03:44:21;18.50;99.90
4530;DHT22;2277;51.626;7.516;2022-07-23T03:46:46;18.50;99.90
4530;DHT22;2277;51.626;7.516;2022-07-23T03:49:12;18.40;99.90
4530;DHT22;2277;51.626;7.516;2022-07-23T03:51:37;18.40;99.90
4530;DHT22;2277;51.626;7.516;2022-07-23T03:54:03;18.40;99.90
4530;DHT22;2277;51.626;7.516;2022-07-23T03:56:29;18.40;99.90
4530;DHT22;2277;51.626;7.516;2022-07-23T03:58:54;18.30;99.90
4530;DHT22;2277;51.626;7.516;2022-07-23T04:01:20;18.30;99.90
4530;DHT22;2277;51.626;7.516;2022-07-23T04:03:45;18.20;99.90
4530;DHT22;2277;51.626;7.516;2022-07-23T04:06:12;18.20;99.90
4530;DHT22;2277;51.626;7.516;2022-07-23T04:08:38;18.20;99.90
4530;DHT22;2277;51.626;7.516;2022-07-23T04:11:03;18.20;99.90
4530;DHT22;2277;51.626;7.516;2022-07-23T04:13:29;18.20;99.90
4530;DHT22;2277;51.626;7.516;2022-07-23T04:15:55;18.20;99.90
4530;DHT22;2277;51.626;7.516;2022-07-23T04:18:21;18.10;99.90
4530;DHT22;2277;51.626;7.516;2022-07-23T04:20:50;18.10;99.90
4530;DHT22;2277;51.626;7.516;2022-07-23T04:23:15;18.10;99.90
4530;DHT22;2277;51.626;7.516;2022-07-23T04:25:42;18.10;99.90
4530;DHT22;2277;51.626;7.516;2022-07-23T04:28:08;18.10;99.90
4530;DHT22;2277;51.626;7.516;2022-07-23T04:30:34;18.10;99.90
4530;DHT22;2277;51.626;7.516;2022-07-23T04:32:59;18.10;99.90
4530;DHT22;2277;51.626;7.516;2022-07-23T04:35:25;18.10;99.90
4530;DHT22;2277;51.626;7.516;2022-07-23T04:37:51;18.10;99.90
4530;DHT22;2277;51.626;7.516;2022-07-23T04:40:16;18.10;99.90
4530;DHT22;2277;51.626;7.516;2022-07-23T04:42:42;18.10;99.90
4530;DHT22;2277;51.626;7.516;2022-07-23T04:45:08;18.00;99.90
4530;DHT22;2277;51.626;7.516;2022-07-23T04:47:34;18.00;99.90
4530;DHT22;2277;51.626;7.516;2022-07-23T04:49:59;18.10;99.90
4530;DHT22;2277;51.626;7.516;2022-07-23T04:52:25;18.10;99.90
4530;DHT22;2277;51.626;7.516;2022-07-23T04:54:50;18.10;99.90
4530;DHT22;2277;51.626;7.516;2022-07-23T04:57:16;18.10;99.90
4530;DHT22;2277;51.626;7.516;2022-07-23T04:59:42;18.10;99.90
4530;DHT22;2277;51.626;7.516;2022-07-23T05:02:07;18.10;99.90
4530;DHT22;2277;51.626;7.516;2022-07-23T05:04:33;18.20;99.90
4530;DHT22;2277;51.626;7.516;2022-07-23T05:06:59;18.20;99.90
4530;DHT22;2277;51.626;7.516;2022-07-23T05:09:25;18.30;99.90
4530;DHT22;2277;51.626;7.516;2022-07-23T05:11:50;18.30;99.90
4530;DHT22;2277;51.626;7.516;2022-07-23T05:14:16;18.30;99.90
4530;DHT22;2277;51.626;7.516;2022-07-23T05:16:41;18.30;99.90
4530;DHT22;2277;51.626;7.516;2022-07-23T05:19:07;18.40;99.90
4530;DHT22;2277;51.626;7.516;2022-07-23T05:21:33;18.40;99.90
4530;DHT22;2277;51.626;7.516;2022-07-23T05:23:59;18.40;99.90
4530;DHT22;2277;51.626;7.516;2022-07-23T05:26:25;18.40;99.90
4530;DHT22;2277;51.626;7.516;2022-07-23T05:28:51;18.40;99.90
4530;DHT22;2277;51.626;7.516;2022-07-23T05:31:16;18.40;99.90
4530;DHT22;2277;51.626;7.516;2022-07-23T05:33:42;18.40;99.90
4530;DHT22;2277;51.626;7.516;2022-07-23T05:36:08;18.50;99.90
4530;DHT22;2277;51.626;7.516;2022-07-23T05:38:34;18.50;99.90
4530;DHT22;2277;51.626;7.516;2022-07-23T05:41:00;18.60;99.90
4530;DHT22;2277;51.626;7.516;2022-07-23T05:43:26;18.60;99.90
4530;DHT22;2277;51.626;7.516;2022-07-23T05:45:52;18.60;99.90
4530;DHT22;2277;51.626;7.516;2022-07-23T05:48:19;18.60;99.90
4530;DHT22;2277;51.626;7.516;2022-07-23T05:50:45;18.60;99.90
4530;DHT22;2277;51.626;7.516;2022-07-23T05:53:11;18.60;99.90
4530;DHT22;2277;51.626;7.516;2022-07-23T05:55:37;18.60;99.90
4530;DHT22;2277;51.626;7.516;2022-07-23T05:58:03;18.70;99.90
4530;DHT22;2277;51.626;7.516;2022-07-23T06:00:29;18.70;99.90
4530;DHT22;2277;51.626;7.516;2022-07-23T06:02:55;18.70;99.90
4530;DHT22;2277;51.626;7.516;2022-07-23T06:05:21;18.80;99.90
4530;DHT22;2277;51.626;7.516;2022-07-23T06:07:46;18.80;99.90
4530;DHT22;2277;51.626;7.516;2022-07-23T06:10:12;18.80;99.90
4530;DHT22;2277;51.626;7.516;2022-07-23T06:12:38;18.80;99.90
4530;DHT22;2277;51.626;7.516;2022-07-23T06:15:04;18.80;99.90
4530;DHT22;2277;51.626;7.516;2022-07-23T06:17:30;18.90;99.90
4530;DHT22;2277;51.626;7.516;2022-07-23T06:19:55;18.90;99.90
4530;DHT22;2277;51.626;7.516;2022-07-23T06:22:21;19.00;99.90
4530;DHT22;2277;51.626;7.516;2022-07-23T06:24:48;19.00;99.90
4530;DHT22;2277;51.626;7.516;2022-07-23T06:27:13;19.00;99.90
4530;DHT22;2277;51.626;7.516;2022-07-23T06:29:39;19.00;99.90
4530;DHT22;2277;51.626;7.516;2022-07-23T06:32:06;19.10;99.90
4530;DHT22;2277;51.626;7.516;2022-07-23T06:34:32;19.20;99.90
4530;DHT22;2277;51.626;7.516;2022-07-23T06:36:58;19.20;99.90
4530;DHT22;2277;51.626;7.516;2022-07-23T06:39:24;19.20;99.90
4530;DHT22;2277;51.626;7.516;2022-07-23T06:41:49;19.20;99.90
4530;DHT22;2277;51.626;7.516;2022-07-23T06:44:15;19.30;99.90
4530;DHT22;2277;51.626;7.516;2022-07-23T06:46:41;19.40;99.90
4530;DHT22;2277;51.626;7.516;2022-07-23T06:49:06;19.40;99.90
4530;DHT22;2277;51.626;7.516;2022-07-23T06:51:32;19.50;99.90
4530;DHT22;2277;51.626;7.516;2022-07-23T06:53:58;19.50;99.90
4530;DHT22;2277;51.626;7.516;2022-07-23T06:56:24;19.60;99.90
4530;DHT22;2277;51.626;7.516;2022-07-23T06:58:49;19.70;99.90
4530;DHT22;2277;51.626;7.516;2022-07-23T07:01:15;19.70;99.90
4530;DHT22;2277;51.626;7.516;2022-07-23T07:03:40;19.80;99.90
4530;DHT22;2277;51.626;7.516;2022-07-23T07:06:06;19.90;99.90
4530;DHT22;2277;51.626;7.516;2022-07-23T07:08:32;20.00;99.90
4530;DHT22;2277;51.626;7.516;2022-07-23T07:10:57;20.00;99.90
4530;DHT22;2277;51.626;7.516;2022-07-23T07:13:23;20.10;99.90
4530;DHT22;2277;51.626;7.516;2022-07-23T07:15:49;20.20;99.90
4530;DHT22;2277;51.626;7.516;2022-07-23T07:18:14;20.30;99.90
4530;DHT22;2277;51.626;7.516;2022-07-23T07:20:40;20.40;99.90
4530;DHT22;2277;51.626;7.516;2022-07-23T07:23:05;20.50;99.90
4530;DHT22;2277;51.626;7.516;2022-07-23T07:25:31;20.60;99.90
4530;DHT22;2277;51.626;7.516;2022-07-23T07:27:57;20.80;99.90
4530;DHT22;2277;51.626;7.516;2022-07-23T07:30:22;20.80;99.90
4530;DHT22;2277;51.626;7.516;2022-07-23T07:32:48;21.00;99.90
4530;DHT22;2277;51.626;7.516;2022-07-23T07:35:14;21.00;99.90
4530;DHT22;2277;51.626;7.516;2022-07-23T07:37:39;21.20;99.90
4530;DHT22;2277;51.626;7.516;2022-07-23T07:40:05;21.30;99.90
4530;DHT22;2277;51.626;7.516;2022-07-23T07:42:31;21.40;99.90
4530;DHT22;2277;51.626;7.516;2022-07-23T07:44:57;21.60;99.90
4530;DHT22;2277;51.626;7.516;2022-07-23T07:47:23;21.70;99.90
4530;DHT22;2277;51.626;7.516;2022-07-23T07:49:48;21.90;99.90
4530;DHT22;2277;51.626;7.516;2022-07-23T07:52:14;22.00;99.90
4530;DHT22;2277;51.626;7.516;2022-07-23T07:54:40;22.10;99.90
4530;DHT22;2277;51.626;7.516;2022-07-23T07:57:05;22.10;99.90
4530;DHT22;2277;51.626;7.516;2022-07-23T07:59:31;22.20;99.90
4530;DHT22;2277;51.626;7.516;2022-07-23T08:01:57;22.30;99.90
4530;DHT22;2277;51.626;7.516;2022-07-23T08:04:22;22.50;99.90
4530;DHT22;2277;51.626;7.516;2022-07-23T08:06:48;22.70;99.90
4530;DHT22;2277;51.626;7.516;2022-07-23T08:09:13;22.80;99.90
4530;DHT22;2277;51.626;7.516;2022-07-23T08:11:39;22.70;99.90
4530;DHT22;2277;51.626;7.516;2022-07-23T08:14:05;22.70;99.90
4530;DHT22;2277;51.626;7.516;2022-07-23T08:16:31;22.70;99.90
4530;DHT22;2277;51.626;7.516;2022-07-23T08:18:56;22.70;99.90
4530;DHT22;2277;51.626;7.516;2022-07-23T08:21:22;22.70;99.90
4530;DHT22;2277;51.626;7.516;2022-07-23T08:23:48;22.90;99.90
4530;DHT22;2277;51.626;7.516;2022-07-23T08:26:13;23.10;99.90
4530;DHT22;2277;51.626;7.516;2022-07-23T08:28:39;23.20;99.90
4530;DHT22;2277;51.626;7.516;2022-07-23T08:31:05;23.40;99.90
4530;DHT22;2277;51.626;7.516;2022-07-23T08:33:33;23.60;99.90
4530;DHT22;2277;51.626;7.516;2022-07-23T08:35:59;23.70;99.90
4530;DHT22;2277;51.626;7.516;2022-07-23T08:38:25;23.80;99.90
4530;DHT22;2277;51.626;7.516;2022-07-23T08:40:52;23.90;99.90
4530;DHT22;2277;51.626;7.516;2022-07-23T08:43:26;23.90;99.90
4530;DHT22;2277;51.626;7.516;2022-07-23T08:45:56;24.10;99.90
4530;DHT22;2277;51.626;7.516;2022-07-23T08:48:24;24.20;99.90
4530;DHT22;2277;51.626;7.516;2022-07-23T08:50:55;24.40;99.90
4530;DHT22;2277;51.626;7.516;2022-07-23T08:53:22;24.60;99.90
4530;DHT22;2277;51.626;7.516;2022-07-23T08:55:51;24.80;99.90
4530;DHT22;2277;51.626;7.516;2022-07-23T08:58:18;25.00;99.90
4530;DHT22;2277;51.626;7.516;2022-07-23T09:00:45;25.10;99.90
4530;DHT22;2277;51.626;7.516;2022-07-23T09:03:16;25.20;99.90
4530;DHT22;2277;51.626;7.516;2022-07-23T09:05:42;25.30;99.90
4530;DHT22;2277;51.626;7.516;2022-07-23T09:08:13;25.50;99.90
4530;DHT22;2277;51.626;7.516;2022-07-23T09:10:49;25.70;99.90
4530;DHT22;2277;51.626;7.516;2022-07-23T09:13:50;25.80;99.90
4530;DHT22;2277;51.626;7.516;2022-07-23T09:18:53;26.20;99.90
4530;DHT22;2277;51.626;7.516;2022-07-23T09:21:25;26.20;99.90
4530;DHT22;2277;51.626;7.516;2022-07-23T09:26:22;26.40;99.90
4530;DHT22;2277;51.626;7.516;2022-07-23T09:29:00;26.50;99.90
4530;DHT22;2277;51.626;7.516;2022-07-23T09:31:34;26.70;99.90
4530;DHT22;2277;51.626;7.516;2022-07-23T09:34:07;26.90;99.90
4530;DHT22;2277;51.626;7.516;2022-07-23T09:36:34;26.90;99.90
4530;DHT22;2277;51.626;7.516;2022-07-23T09:38:59;26.90;99.90
4530;DHT22;2277;51.626;7.516;2022-07-23T09:41:40;26.80;99.90
4530;DHT22;2277;51.626;7.516;2022-07-23T09:44:12;27.00;99.90
4530;DHT22;2277;51.626;7.516;2022-07-23T09:46:39;27.10;99.90
4530;DHT22;2277;51.626;7.516;2022-07-23T09:49:16;27.40;99.90
4530;DHT22;2277;51.626;7.516;2022-07-23T09:52:01;27.40;99.90
4530;DHT22;2277;51.626;7.516;2022-07-23T09:54:38;27.40;99.90
4530;DHT22;2277;51.626;7.516;2022-07-23T09:57:06;27.40;99.90
4530;DHT22;2277;51.626;7.516;2022-07-23T09:59:35;27.60;99.90
4530;DHT22;2277;51.626;7.516;2022-07-23T10:02:03;27.40;99.90
4530;DHT22;2277;51.626;7.516;2022-07-23T10:04:31;27.40;99.90
4530;DHT22;2277;51.626;7.516;2022-07-23T10:06:59;27.40;99.90
4530;DHT22;2277;51.626;7.516;2022-07-23T10:09:33;27.50;99.90
4530;DHT22;2277;51.626;7.516;2022-07-23T10:12:02;27.60;99.90
4530;DHT22;2277;51.626;7.516;2022-07-23T10:14:38;27.60;99.90
4530;DHT22;2277;51.626;7.516;2022-07-23T10:17:05;27.70;99.90
4530;DHT22;2277;51.626;7.516;2022-07-23T10:19:31;27.70;99.90
4530;DHT22;2277;51.626;7.516;2022-07-23T10:32:26;28.30;99.90
4530;DHT22;2277;51.626;7.516;2022-07-23T10:35:20;28.30;99.90
4530;DHT22;2277;51.626;7.516;2022-07-23T10:38:01;28.40;99.90
4530;DHT22;2277;51.626;7.516;2022-07-23T10:40:31;28.50;99.70
4530;DHT22;2277;51.626;7.516;2022-07-23T10:42:59;28.50;99.90
4530;DHT22;2277;51.626;7.516;2022-07-23T10:45:34;28.50;99.90
4530;DHT22;2277;51.626;7.516;2022-07-23T10:48:26;28.50;99.70
4530;DHT22;2277;51.626;7.516;2022-07-23T10:51:18;28.60;99.90
4530;DHT22;2277;51.626;7.516;2022-07-23T10:53:55;28.60;99.90
4530;DHT22;2277;51.626;7.516;2022-07-23T10:59:15;28.70;98.60
4530;DHT22;2277;51.626;7.516;2022-07-23T11:01:41;28.70;99.60
4530;DHT22;2277;51.626;7.516;2022-07-23T11:04:07;28.80;98.50
4530;DHT22;2277;51.626;7.516;2022-07-23T11:17:33;29.00;96.10
4530;DHT22;2277;51.626;7.516;2022-07-23T11:25:12;29.10;94.60
4530;DHT22;2277;51.626;7.516;2022-07-23T11:27:42;29.30;95.60
4530;DHT22;2277;51.626;7.516;2022-07-23T11:30:10;29.50;94.90
4530;DHT22;2277;51.626;7.516;2022-07-23T11:32:40;29.60;94.70
4530;DHT22;2277;51.626;7.516;2022-07-23T11:35:33;29.70;93.70
4530;DHT22;2277;51.626;7.516;2022-07-23T11:40:29;29.90;93.00
4530;DHT22;2277;51.626;7.516;2022-07-23T11:45:23;30.40;90.70
4530;DHT22;2277;51.626;7.516;2022-07-23T11:47:49;30.50;91.30
4530;DHT22;2277;51.626;7.516;2022-07-23T11:50:15;30.60;89.80
4530;DHT22;2277;51.626;7.516;2022-07-23T11:52:40;30.70;85.90
4530;DHT22;2277;51.626;7.516;2022-07-23T11:55:08;30.80;88.80
4530;DHT22;2277;51.626;7.516;2022-07-23T11:57:37;30.90;86.40
4530;DHT22;2277;51.626;7.516;2022-07-23T12:00:12;31.10;89.70
4530;DHT22;2277;51.626;7.516;2022-07-23T12:02:44;31.20;88.70
4530;DHT22;2277;51.626;7.516;2022-07-23T12:05:16;31.10;87.30
4530;DHT22;2277;51.626;7.516;2022-07-23T12:07:43;31.20;83.40
4530;DHT22;2277;51.626;7.516;2022-07-23T12:12:39;31.50;83.80
4530;DHT22;2277;51.626;7.516;2022-07-23T12:15:05;31.40;82.00
4530;DHT22;2277;51.626;7.516;2022-07-23T12:17:35;31.40;81.10
4530;DHT22;2277;51.626;7.516;2022-07-23T12:20:02;31.40;79.50
4530;DHT22;2277;51.626;7.516;2022-07-23T12:22:41;31.40;81.50
4530;DHT22;2277;51.626;7.516;2022-07-23T12:27:35;31.60;81.30
4530;DHT22;2277;51.626;7.516;2022-07-23T12:30:24;31.60;79.60
4530;DHT22;2277;51.626;7.516;2022-07-23T12:32:52;31.70;79.60
4530;DHT22;2277;51.626;7.516;2022-07-23T12:35:18;31.70;78.00
4530;DHT22;2277;51.626;7.516;2022-07-23T12:37:46;31.70;79.70
4530;DHT22;2277;51.626;7.516;2022-07-23T12:43:10;31.70;74.60
4530;DHT22;2277;51.626;7.516;2022-07-23T12:45:47;31.90;79.90
4530;DHT22;2277;51.626;7.516;2022-07-23T12:53:21;32.00;77.20
4530;DHT22;2277;51.626;7.516;2022-07-23T12:55:49;32.00;78.30
4530;DHT22;2277;51.626;7.516;2022-07-23T12:58:18;32.00;77.60
4530;DHT22;2277;51.626;7.516;2022-07-23T13:01:03;32.10;74.50
4530;DHT22;2277;51.626;7.516;2022-07-23T13:03:38;32.00;74.60
4530;DHT22;2277;51.626;7.516;2022-07-23T13:06:07;32.00;74.00
4530;DHT22;2277;51.626;7.516;2022-07-23T13:08:34;31.90;73.70
4530;DHT22;2277;51.626;7.516;2022-07-23T13:11:00;31.80;76.30
4530;DHT22;2277;51.626;7.516;2022-07-23T13:13:28;31.90;75.70
4530;DHT22;2277;51.626;7.516;2022-07-23T13:15:54;31.90;73.50
4530;DHT22;2277;51.626;7.516;2022-07-23T13:18:20;31.90;74.10
4530;DHT22;2277;51.626;7.516;2022-07-23T13:20:47;32.00;73.00
4530;DHT22;2277;51.626;7.516;2022-07-23T13:23:14;32.10;72.80
4530;DHT22;2277;51.626;7.516;2022-07-23T13:25:41;32.30;71.90
4530;DHT22;2277;51.626;7.516;2022-07-23T13:28:06;32.10;71.50
4530;DHT22;2277;51.626;7.516;2022-07-23T13:30:32;32.10;70.40
4530;DHT22;2277;51.626;7.516;2022-07-23T13:32:59;32.10;69.70
4530;DHT22;2277;51.626;7.516;2022-07-23T13:35:25;32.20;70.00
4530;DHT22;2277;51.626;7.516;2022-07-23T13:37:51;32.20;69.70
4530;DHT22;2277;51.626;7.516;2022-07-23T13:40:16;32.10;70.30
4530;DHT22;2277;51.626;7.516;2022-07-23T13:42:42;32.10;68.90
4530;DHT22;2277;51.626;7.516;2022-07-23T13:45:08;32.00;70.00
4530;DHT22;2277;51.626;7.516;2022-07-23T13:47:34;32.10;71.30
4530;DHT22;2277;51.626;7.516;2022-07-23T13:49:59;32.30;72.30
4530;DHT22;2277;51.626;7.516;2022-07-23T13:52:25;32.40;71.40
4530;DHT22;2277;51.626;7.516;2022-07-23T13:54:51;32.40;70.90
4530;DHT22;2277;51.626;7.516;2022-07-23T13:57:16;32.40;70.20
4530;DHT22;2277;51.626;7.516;2022-07-23T13:59:42;32.30;68.30
4530;DHT22;2277;51.626;7.516;2022-07-23T14:02:08;32.30;67.20
4530;DHT22;2277;51.626;7.516;2022-07-23T14:04:34;32.10;68.80
4530;DHT22;2277;51.626;7.516;2022-07-23T14:07:00;32.10;70.70
4530;DHT22;2277;51.626;7.516;2022-07-23T14:09:26;32.10;71.50
4530;DHT22;2277;51.626;7.516;2022-07-23T14:11:52;32.00;69.30
4530;DHT22;2277;51.626;7.516;2022-07-23T14:14:18;32.00;70.20
4530;DHT22;2277;51.626;7.516;2022-07-23T14:16:43;32.00;68.90
4530;DHT22;2277;51.626;7.516;2022-07-23T14:19:10;32.00;71.60
4530;DHT22;2277;51.626;7.516;2022-07-23T14:21:36;32.00;69.70
4530;DHT22;2277;51.626;7.516;2022-07-23T14:24:02;32.00;68.80
4530;DHT22;2277;51.626;7.516;2022-07-23T14:26:28;32.20;72.70
4530;DHT22;2277;51.626;7.516;2022-07-23T14:28:53;32.30;69.10
4530;DHT22;2277;51.626;7.516;2022-07-23T14:31:19;32.30;67.80
4530;DHT22;2277;51.626;7.516;2022-07-23T14:33:45;32.30;69.00
4530;DHT22;2277;51.626;7.516;2022-07-23T14:36:10;32.40;67.30
4530;DHT22;2277;51.626;7.516;2022-07-23T14:38:36;32.40;68.40
4530;DHT22;2277;51.626;7.516;2022-07-23T14:41:02;32.20;66.90
4530;DHT22;2277;51.626;7.516;2022-07-23T14:43:32;32.00;68.50
4530;DHT22;2277;51.626;7.516;2022-07-23T14:45:58;31.90;69.60
4530;DHT22;2277;51.626;7.516;2022-07-23T14:48:24;31.90;70.40
4530;DHT22;2277;51.626;7.516;2022-07-23T14:50:49;31.90;69.30
4530;DHT22;2277;51.626;7.516;2022-07-23T14:53:15;31.80;68.70
4530;DHT22;2277;51.626;7.516;2022-07-23T14:55:40;31.80;69.00
4530;DHT22;2277;51.626;7.516;2022-07-23T14:58:06;31.80;70.50
4530;DHT22;2277;51.626;7.516;2022-07-23T15:00:32;31.90;69.10
4530;DHT22;2277;51.626;7.516;2022-07-23T15:02:58;31.80;70.30
4530;DHT22;2277;51.626;7.516;2022-07-23T15:05:24;31.80;70.50
4530;DHT22;2277;51.626;7.516;2022-07-23T15:07:49;31.80;67.70
4530;DHT22;2277;51.626;7.516;2022-07-23T15:10:15;31.80;69.30
4530;DHT22;2277;51.626;7.516;2022-07-23T15:12:42;31.80;70.30
4530;DHT22;2277;51.626;7.516;2022-07-23T15:15:08;31.70;68.00
4530;DHT22;2277;51.626;7.516;2022-07-23T15:17:34;31.50;69.60
4530;DHT22;2277;51.626;7.516;2022-07-23T15:19:59;31.50;70.10
4530;DHT22;2277;51.626;7.516;2022-07-23T15:22:25;31.30;69.80
4530;DHT22;2277;51.626;7.516;2022-07-23T15:24:51;31.10;70.50
4530;DHT22;2277;51.626;7.516;2022-07-23T15:27:16;31.00;70.40
4530;DHT22;2277;51.626;7.516;2022-07-23T15:29:44;31.00;72.60
4530;DHT22;2277;51.626;7.516;2022-07-23T15:32:10;30.90;71.50
4530;DHT22;2277;51.626;7.516;2022-07-23T15:34:38;31.00;70.60
4530;DHT22;2277;51.626;7.516;2022-07-23T15:37:04;30.90;71.90
4530;DHT22;2277;51.626;7.516;2022-07-23T15:39:31;30.90;71.40
4530;DHT22;2277;51.626;7.516;2022-07-23T15:42:01;31.00;71.90
4530;DHT22;2277;51.626;7.516;2022-07-23T15:44:27;31.00;72.20
4530;DHT22;2277;51.626;7.516;2022-07-23T15:46:52;31.10;71.90
4530;DHT22;2277;51.626;7.516;2022-07-23T15:49:18;31.10;72.90
4530;DHT22;2277;51.626;7.516;2022-07-23T15:51:44;31.10;71.50
4530;DHT22;2277;51.626;7.516;2022-07-23T15:54:09;31.20;71.60
4530;DHT22;2277;51.626;7.516;2022-07-23T15:56:35;31.30;71.20
4530;DHT22;2277;51.626;7.516;2022-07-23T15:59:01;31.30;70.20
4530;DHT22;2277;51.626;7.516;2022-07-23T16:01:27;31.30;70.30
4530;DHT22;2277;51.626;7.516;2022-07-23T16:03:56;31.30;70.50
4530;DHT22;2277;51.626;7.516;2022-07-23T16:06:24;31.40;70.30
4530;DHT22;2277;51.626;7.516;2022-07-23T16:08:50;31.50;70.00
4530;DHT22;2277;51.626;7.516;2022-07-23T16:11:16;31.50;70.60
4530;DHT22;2277;51.626;7.516;2022-07-23T16:13:42;31.40;71.00
4530;DHT22;2277;51.626;7.516;2022-07-23T16:16:08;31.40;69.80
4530;DHT22;2277;51.626;7.516;2022-07-23T16:18:34;31.40;69.30
4530;DHT22;2277;51.626;7.516;2022-07-23T16:21:00;31.30;70.40
4530;DHT22;2277;51.626;7.516;2022-07-23T16:23:25;31.20;71.30
4530;DHT22;2277;51.626;7.516;2022-07-23T16:25:51;31.00;70.20
4530;DHT22;2277;51.626;7.516;2022-07-23T16:28:17;30.90;70.30
4530;DHT22;2277;51.626;7.516;2022-07-23T16:30:43;30.60;69.60
4530;DHT22;2277;51.626;7.516;2022-07-23T16:33:08;30.60;71.40
4530;DHT22;2277;51.626;7.516;2022-07-23T16:35:35;30.50;70.90
4530;DHT22;2277;51.626;7.516;2022-07-23T16:38:00;30.40;71.50
4530;DHT22;2277;51.626;7.516;2022-07-23T16:40:27;30.40;70.90
4530;DHT22;2277;51.626;7.516;2022-07-23T16:42:53;30.20;71.50
4530;DHT22;2277;51.626;7.516;2022-07-23T16:45:19;30.10;72.30
4530;DHT22;2277;51.626;7.516;2022-07-23T16:47:46;30.00;71.60
4530;DHT22;2277;51.626;7.516;2022-07-23T16:50:12;29.90;71.60
4530;DHT22;2277;51.626;7.516;2022-07-23T16:52:37;29.80;71.40